createdAt,value
2022-12-06T00:01:48.827Z,7.77
2022-12-06T00:04:37.328Z,9.07
2022-12-06T00:07:24.382Z,7.83
2022-12-06T00:10:11.554Z,8.80
2022-12-06T00:12:58.185Z,9.43
2022-12-06T00:15:44.600Z,7.13
2022-12-06T00:18:32.061Z,6.67
2022-12-06T00:21:22.798Z,8.23
2022-12-06T00:24:13.129Z,8.10
2022-12-06T00:26:59.796Z,7.50
2022-12-06T00:29:46.625Z,5.90
2022-12-06T00:32:33.888Z,5.97
2022-12-06T00:35:20.586Z,7.50
2022-12-06T00:38:08.770Z,7.10
2022-12-06T00:41:00.708Z,5.87
2022-12-06T00:43:48.891Z,6.90
2022-12-06T00:46:37.285Z,8.70
2022-12-06T00:49:24.049Z,6.10
2022-12-06T00:52:10.866Z,7.23
2022-12-06T00:54:59.256Z,7.77
2022-12-06T00:57:45.758Z,6.70
2022-12-06T01:00:32.642Z,8.40
2022-12-06T01:03:19.671Z,7.97
2022-12-06T01:06:08.547Z,8.43
2022-12-06T01:08:56.065Z,9.03
2022-12-06T01:11:43.950Z,7.20
2022-12-06T01:14:30.671Z,7.37
2022-12-06T01:17:17.486Z,8.87
2022-12-06T01:20:05.825Z,7.20
2022-12-06T01:22:52.378Z,8.30
2022-12-06T01:25:39.241Z,7.57
2022-12-06T01:28:28.469Z,6.53
2022-12-06T01:31:17.063Z,7.63
2022-12-06T01:34:03.762Z,6.67
2022-12-06T01:36:51.035Z,7.93
2022-12-06T01:39:37.508Z,6.57
2022-12-06T01:42:24.338Z,8.07
2022-12-06T01:45:13.363Z,7.47
2022-12-06T01:48:00.058Z,7.10
2022-12-06T01:50:47.049Z,6.93
2022-12-06T01:53:34.860Z,8.20
2022-12-06T01:56:22.946Z,9.10
2022-12-06T01:59:11.193Z,6.33
2022-12-06T02:02:00.236Z,6.10
2022-12-06T02:04:46.803Z,7.27
2022-12-06T02:07:34.625Z,5.97
2022-12-06T02:10:21.999Z,6.43
2022-12-06T02:13:09.459Z,8.40
2022-12-06T02:16:12.482Z,6.70
2022-12-06T02:19:20.436Z,5.77
2022-12-06T02:22:15.783Z,6.47
2022-12-06T02:25:37.289Z,6.83
2022-12-06T02:29:06.267Z,7.00
2022-12-06T02:31:59.998Z,6.83
2022-12-06T02:34:55.153Z,5.70
2022-12-06T02:37:50.346Z,6.23
2022-12-06T02:40:46.447Z,5.20
2022-12-06T02:43:41.586Z,6.60
2022-12-06T02:46:35.115Z,7.90
2022-12-06T02:49:27.007Z,9.37
2022-12-06T02:52:15.165Z,7.67
2022-12-06T02:55:02.930Z,6.87
2022-12-06T02:57:54.258Z,6.60
2022-12-06T03:00:44.090Z,6.63
2022-12-06T03:03:58.263Z,8.53
2022-12-06T03:07:10.981Z,5.67
2022-12-06T03:10:13.084Z,7.57
2022-12-06T03:13:13.871Z,7.20
2022-12-06T03:16:09.455Z,7.33
2022-12-06T03:19:04.363Z,7.57
2022-12-06T03:22:01.822Z,6.50
2022-12-06T03:24:48.823Z,7.43
2022-12-06T03:27:37.409Z,7.77
2022-12-06T03:30:25.197Z,6.90
2022-12-06T03:33:13.717Z,6.27
2022-12-06T03:36:01.647Z,5.47
2022-12-06T03:38:55.007Z,7.17
2022-12-06T03:41:49.384Z,6.53
2022-12-06T03:44:36.703Z,4.77
2022-12-06T03:47:34.464Z,9.77
2022-12-06T03:50:33.133Z,5.13
2022-12-06T03:53:21.269Z,6.90
2022-12-06T03:56:09.228Z,5.87
2022-12-06T03:58:55.908Z,6.37
2022-12-06T04:01:42.844Z,6.57
2022-12-06T04:04:29.750Z,5.13
2022-12-06T04:07:21.121Z,6.90
2022-12-06T04:10:09.317Z,6.03
2022-12-06T04:13:05.785Z,6.93
2022-12-06T04:15:57.729Z,5.97
2022-12-06T04:18:43.498Z,6.80
2022-12-06T04:21:47.755Z,7.80
2022-12-06T04:24:34.548Z,7.20
2022-12-06T04:27:39.124Z,8.97
2022-12-06T04:30:45.189Z,6.23
2022-12-06T04:33:49.794Z,7.50
2022-12-06T04:36:54.456Z,7.77
2022-12-06T04:39:41.248Z,5.50
2022-12-06T04:42:45.728Z,5.90
2022-12-06T04:45:33.690Z,7.30
2022-12-06T04:48:20.218Z,5.80
2022-12-06T04:51:07.695Z,7.37
2022-12-06T04:53:54.442Z,7.47
2022-12-06T04:56:41.225Z,6.43
2022-12-06T04:59:29.481Z,8.50
2022-12-06T05:02:18.090Z,9.10
2022-12-06T05:05:05.477Z,7.23
2022-12-06T05:07:52.005Z,5.13
2022-12-06T05:10:39.448Z,7.07
2022-12-06T05:13:26.185Z,7.50
2022-12-06T05:16:13.776Z,5.57
2022-12-06T05:19:01.882Z,5.60
2022-12-06T05:21:48.380Z,8.47
2022-12-06T05:24:34.995Z,8.23
2022-12-06T05:27:21.727Z,5.53
2022-12-06T05:30:10.270Z,7.37
2022-12-06T05:32:57.236Z,8.07
2022-12-06T05:35:45.383Z,6.97
2022-12-06T05:38:34.346Z,6.63
2022-12-06T05:41:22.021Z,7.03
2022-12-06T05:44:12.404Z,6.23
2022-12-06T05:46:59.131Z,6.77
2022-12-06T05:49:45.577Z,7.17
2022-12-06T05:52:34.627Z,5.77
2022-12-06T05:55:21.603Z,7.07
2022-12-06T05:58:08.719Z,6.47
2022-12-06T06:00:55.704Z,6.63
2022-12-06T06:03:47.213Z,9.73
2022-12-06T06:06:34.010Z,6.23
2022-12-06T06:09:22.116Z,6.67
2022-12-06T06:12:12.491Z,7.17
2022-12-06T06:14:59.778Z,5.33
2022-12-06T06:17:46.607Z,5.67
2022-12-06T06:20:33.531Z,5.93
2022-12-06T06:23:21.269Z,5.63
2022-12-06T06:26:11.746Z,5.47
2022-12-06T06:28:58.541Z,4.70
2022-12-06T06:31:45.445Z,4.07
2022-12-06T06:34:32.143Z,5.43
2022-12-06T06:37:18.828Z,5.17
2022-12-06T06:40:07.345Z,5.40
2022-12-06T06:42:55.413Z,5.27
2022-12-06T06:45:42.198Z,5.53
2022-12-06T06:48:31.205Z,5.07
2022-12-06T06:51:17.989Z,5.63
2022-12-06T06:54:05.053Z,7.07
2022-12-06T06:56:51.623Z,4.60
2022-12-06T06:59:39.390Z,4.87
2022-12-06T07:02:25.950Z,5.83
2022-12-06T07:05:12.641Z,5.67
2022-12-06T07:07:59.435Z,7.07
2022-12-06T07:10:48.606Z,5.23
2022-12-06T07:13:36.751Z,8.40
2022-12-06T07:16:25.210Z,5.10
2022-12-06T07:19:11.741Z,5.30
2022-12-06T07:21:58.344Z,6.53
2022-12-06T07:24:50.764Z,9.30
2022-12-06T07:27:39.127Z,4.83
2022-12-06T07:30:27.646Z,5.43
2022-12-06T07:33:15.489Z,5.53
2022-12-06T07:36:17.406Z,7.37
2022-12-06T07:39:03.951Z,5.37
2022-12-06T07:42:08.535Z,5.53
2022-12-06T07:45:07.157Z,5.33
2022-12-06T07:47:53.684Z,7.33
2022-12-06T07:50:41.611Z,5.43
2022-12-06T07:53:28.409Z,5.53
2022-12-06T07:56:15.268Z,5.33
2022-12-06T07:59:02.391Z,6.67
2022-12-06T08:01:49.403Z,6.30
2022-12-06T08:04:36.815Z,4.50
2022-12-06T08:07:24.665Z,6.17
2022-12-06T08:10:11.714Z,5.03
2022-12-06T08:12:58.192Z,5.80
2022-12-06T08:15:45.691Z,5.40
2022-12-06T08:18:32.314Z,3.73
2022-12-06T08:21:18.947Z,6.37
2022-12-06T08:24:07.954Z,4.50
2022-12-06T08:26:55.325Z,7.57
2022-12-06T08:29:45.664Z,5.07
2022-12-06T08:32:32.175Z,5.47
2022-12-06T08:35:18.919Z,4.83
2022-12-06T08:38:05.714Z,5.20
2022-12-06T08:40:53.699Z,4.40
2022-12-06T08:43:40.298Z,5.00
2022-12-06T08:46:28.575Z,3.83
2022-12-06T08:49:18.739Z,3.93
2022-12-06T08:52:05.593Z,4.77
2022-12-06T08:54:52.381Z,4.87
2022-12-06T08:57:40.218Z,4.97
2022-12-06T09:00:27.233Z,6.03
2022-12-06T09:03:14.506Z,5.87
2022-12-06T09:06:03.087Z,4.30
2022-12-06T09:08:49.934Z,4.53
2022-12-06T09:11:37.206Z,6.50
2022-12-06T09:14:25.311Z,5.63
2022-12-06T09:17:12.176Z,5.80
2022-12-06T09:20:03.926Z,3.90
2022-12-06T09:22:52.056Z,4.23
2022-12-06T09:25:38.786Z,3.93
2022-12-06T09:28:25.646Z,4.97
2022-12-06T09:31:13.846Z,4.63
2022-12-06T09:34:00.207Z,4.03
2022-12-06T09:36:53.399Z,2.83
2022-12-06T09:39:45.241Z,3.67
2022-12-06T09:42:58.761Z,4.03
2022-12-06T09:46:03.771Z,3.90
2022-12-06T09:49:22.705Z,3.00
2022-12-06T09:52:40.066Z,3.97
2022-12-06T09:55:47.904Z,4.67
2022-12-06T09:58:57.270Z,4.07
2022-12-06T10:02:02.811Z,4.83
2022-12-06T10:05:14.888Z,4.37
2022-12-06T10:08:21.569Z,4.80
2022-12-06T10:11:27.256Z,5.67
2022-12-06T10:14:33.627Z,4.03
2022-12-06T10:17:41.541Z,5.60
2022-12-06T10:20:42.396Z,4.67
2022-12-06T10:23:46.924Z,3.97
2022-12-06T10:26:44.768Z,4.97
2022-12-06T10:29:49.859Z,3.73
2022-12-06T10:32:51.869Z,3.27
2022-12-06T10:35:45.547Z,2.00
2022-12-06T10:38:40.718Z,2.57
2022-12-06T10:41:33.058Z,3.57
2022-12-06T10:44:32.396Z,3.87
2022-12-06T10:47:26.872Z,2.47
2022-12-06T10:50:25.826Z,3.80
2022-12-06T10:53:19.044Z,3.53
2022-12-06T10:56:14.615Z,3.57
2022-12-06T10:59:15.668Z,5.03
2022-12-06T11:02:28.547Z,4.80
2022-12-06T11:05:22.974Z,3.63
2022-12-06T11:08:17.633Z,3.33
2022-12-06T11:11:11.805Z,3.43
2022-12-06T11:14:05.404Z,3.30
2022-12-06T11:17:00.494Z,2.50
2022-12-06T11:19:52.963Z,4.73
2022-12-06T11:22:51.298Z,3.47
2022-12-06T11:25:52.750Z,3.90
2022-12-06T11:28:43.924Z,3.07
2022-12-06T11:31:37.865Z,3.00
2022-12-06T11:34:31.567Z,7.17
2022-12-06T11:37:21.293Z,3.97
2022-12-06T11:40:20.847Z,2.57
2022-12-06T11:43:18.202Z,2.80
2022-12-06T11:46:06.906Z,3.47
2022-12-06T11:48:54.438Z,3.50
2022-12-06T11:51:41.025Z,3.27
2022-12-06T11:54:34.997Z,2.47
2022-12-06T11:57:27.786Z,3.70
2022-12-06T12:00:22.449Z,2.83
2022-12-06T12:03:29.767Z,3.03
2022-12-06T12:06:26.273Z,2.70
2022-12-06T12:09:20.582Z,4.10
2022-12-06T12:12:16.945Z,2.50
2022-12-06T12:15:04.109Z,2.60
2022-12-06T12:17:58.439Z,2.50
2022-12-06T12:20:47.929Z,3.63
2022-12-06T12:23:38.350Z,4.97
2022-12-06T12:26:25.364Z,4.87
2022-12-06T12:29:19.012Z,2.23
2022-12-06T12:32:12.369Z,4.97
2022-12-06T12:35:25.245Z,3.87
2022-12-06T12:38:23.020Z,2.37
2022-12-06T12:41:29.959Z,2.50
2022-12-06T12:44:39.358Z,3.03
2022-12-06T12:47:27.285Z,3.43
2022-12-06T12:50:23.731Z,2.60
2022-12-06T12:53:31.223Z,3.50
2022-12-06T12:56:20.756Z,2.47
2022-12-06T12:59:16.434Z,3.40
2022-12-06T13:02:15.279Z,3.03
2022-12-06T13:05:31.898Z,2.33
2022-12-06T13:08:27.004Z,2.77
2022-12-06T13:11:13.770Z,4.57
2022-12-06T13:14:01.859Z,2.30
2022-12-06T13:16:53.104Z,4.80
2022-12-06T13:19:53.249Z,3.43
2022-12-06T13:22:45.220Z,4.80
2022-12-06T13:25:33.339Z,3.20
2022-12-06T13:28:28.741Z,3.70
2022-12-06T13:31:20.619Z,4.60
2022-12-06T13:34:21.921Z,3.37
2022-12-06T13:37:29.299Z,3.90
2022-12-06T13:40:49.285Z,3.03
2022-12-06T13:43:57.562Z,3.13
2022-12-06T13:46:43.976Z,2.97
2022-12-06T13:50:00.841Z,3.37
2022-12-06T13:53:04.617Z,5.27
2022-12-06T13:56:01.489Z,4.90
2022-12-06T13:58:56.078Z,7.83
2022-12-06T14:01:45.654Z,5.20
2022-12-06T14:07:34.529Z,3.77
2022-12-06T14:10:21.683Z,3.43
2022-12-06T14:13:19.329Z,2.20
2022-12-06T14:16:08.382Z,3.87
2022-12-06T14:18:54.888Z,3.87
2022-12-06T14:21:44.843Z,3.00
2022-12-06T14:24:35.806Z,4.43
2022-12-06T14:27:25.475Z,4.17
2022-12-06T14:30:25.895Z,2.80
2022-12-06T14:33:20.361Z,2.67
2022-12-06T14:36:28.762Z,3.13
2022-12-06T14:39:20.311Z,2.83
2022-12-06T14:42:37.664Z,3.20
2022-12-06T14:45:25.978Z,2.43
2022-12-06T14:48:14.059Z,3.20
2022-12-06T14:51:02.254Z,3.17
2022-12-06T14:53:49.027Z,3.43
2022-12-06T14:56:37.303Z,2.90
2022-12-06T15:00:10.840Z,3.63
2022-12-06T15:02:40.951Z,2.93
2022-12-06T15:05:37.667Z,3.20
2022-12-06T15:08:38.562Z,5.03
2022-12-06T15:11:51.177Z,3.53
2022-12-06T15:14:49.262Z,5.20
2022-12-06T15:17:37.204Z,3.53
2022-12-06T15:20:23.840Z,2.30
2022-12-06T15:23:32.263Z,3.33
2022-12-06T15:26:20.764Z,3.20
2022-12-06T15:29:07.914Z,3.57
2022-12-06T15:31:56.444Z,4.37
2022-12-06T15:34:45.480Z,3.80
2022-12-06T15:37:40.852Z,4.63
2022-12-06T15:40:29.830Z,4.13
2022-12-06T15:43:32.372Z,5.47
2022-12-06T15:46:23.821Z,4.47
2022-12-06T15:49:15.596Z,2.83
2022-12-06T15:52:03.613Z,5.03
2022-12-06T15:54:50.363Z,4.90
2022-12-06T15:57:37.083Z,3.47
2022-12-06T16:00:24.143Z,3.00
2022-12-06T16:03:11.075Z,5.03
2022-12-06T16:05:58.903Z,4.50
2022-12-06T16:08:47.114Z,2.73
2022-12-06T16:11:36.919Z,4.13
2022-12-06T16:14:23.914Z,3.70
2022-12-06T16:17:10.635Z,3.77
2022-12-06T16:20:15.211Z,5.37
2022-12-06T16:24:04.685Z,4.00
2022-12-06T16:26:45.987Z,4.10
2022-12-06T16:29:33.368Z,4.13
2022-12-06T16:32:19.920Z,5.13
2022-12-06T16:35:07.116Z,7.67
2022-12-06T16:37:53.881Z,7.37
2022-12-06T16:40:40.544Z,5.83
2022-12-06T16:43:28.520Z,12.03
2022-12-06T16:46:28.510Z,7.47
2022-12-06T16:52:25.999Z,6.93
2022-12-06T16:55:12.796Z,4.63
2022-12-06T16:57:59.679Z,6.47
2022-12-06T17:00:47.787Z,8.53
2022-12-06T17:03:34.413Z,6.67
2022-12-06T17:06:21.917Z,4.07
2022-12-06T17:09:08.530Z,5.67
2022-12-06T17:12:06.257Z,4.27
2022-12-06T17:14:53.718Z,3.83
2022-12-06T17:17:41.983Z,4.47
2022-12-06T17:20:28.778Z,3.60
2022-12-06T17:23:15.487Z,5.33
2022-12-06T17:26:02.012Z,5.53
2022-12-06T17:28:48.653Z,6.20
2022-12-06T17:31:38.049Z,3.90
2022-12-06T17:34:27.547Z,3.87
2022-12-06T17:37:14.583Z,3.63
2022-12-06T17:40:01.162Z,5.67
2022-12-06T17:42:59.303Z,4.47
2022-12-06T17:45:46.100Z,3.97
2022-12-06T17:48:36.885Z,3.97
2022-12-06T17:51:29.111Z,2.80
2022-12-06T17:54:16.960Z,3.67
2022-12-06T17:57:03.650Z,4.10
2022-12-06T17:59:50.431Z,6.07
2022-12-06T18:02:37.020Z,4.17
2022-12-06T18:05:23.847Z,4.90
2022-12-06T18:08:11.937Z,3.37
2022-12-06T18:10:59.183Z,4.33
2022-12-06T18:13:46.564Z,4.47
2022-12-06T18:16:36.513Z,5.23
2022-12-06T18:19:23.959Z,7.67
2022-12-06T18:22:10.709Z,3.97
2022-12-06T18:24:58.533Z,7.80
2022-12-06T18:27:45.142Z,4.23
2022-12-06T18:30:31.669Z,4.77
2022-12-06T18:33:21.353Z,5.27
2022-12-06T18:36:09.859Z,8.07
2022-12-06T18:39:00.257Z,7.00
2022-12-06T18:41:48.510Z,7.00
2022-12-06T18:44:35.061Z,4.90
2022-12-06T18:47:21.507Z,5.00
2022-12-06T18:50:10.513Z,5.10
2022-12-06T18:52:57.443Z,6.93
2022-12-06T18:55:44.451Z,5.80
2022-12-06T18:58:32.930Z,9.20
2022-12-06T19:01:22.751Z,6.17
2022-12-06T19:04:14.783Z,5.33
2022-12-06T19:07:01.300Z,6.27
2022-12-06T19:09:47.702Z,5.67
2022-12-06T19:12:34.140Z,5.57
2022-12-06T19:15:22.452Z,4.03
2022-12-06T19:18:13.386Z,6.13
2022-12-06T19:21:01.317Z,6.73
2022-12-06T19:23:48.511Z,6.77
2022-12-06T19:26:36.672Z,7.03
2022-12-06T19:29:25.823Z,6.87
2022-12-06T19:32:14.058Z,7.10
2022-12-06T19:35:08.134Z,4.97
2022-12-06T19:37:55.436Z,4.77
2022-12-06T19:40:42.799Z,4.93
2022-12-06T19:43:46.891Z,4.70
2022-12-06T19:46:33.819Z,6.30
2022-12-06T19:49:24.515Z,3.73
2022-12-06T19:52:11.168Z,7.30
2022-12-06T19:54:57.721Z,6.40
2022-12-06T19:57:45.466Z,3.97
2022-12-06T20:00:32.228Z,6.13
2022-12-06T20:03:19.105Z,4.57
2022-12-06T20:06:12.879Z,4.40
2022-12-06T20:09:03.881Z,8.73
2022-12-06T20:12:02.928Z,8.00
2022-12-06T20:14:50.475Z,5.27
2022-12-06T20:17:37.233Z,6.23
2022-12-06T20:20:23.937Z,6.90
2022-12-06T20:23:12.031Z,7.13
2022-12-06T20:25:59.163Z,8.80
2022-12-06T20:28:48.045Z,6.97
2022-12-06T20:31:35.358Z,6.87
2022-12-06T20:34:21.978Z,8.73
2022-12-06T20:37:08.695Z,6.37
2022-12-06T20:39:56.817Z,7.93
2022-12-06T20:42:43.614Z,9.93
2022-12-06T20:45:30.361Z,11.10
2022-12-06T20:48:17.131Z,6.30
2022-12-06T20:51:04.417Z,11.67
2022-12-06T20:53:53.194Z,9.47
2022-12-06T20:56:42.888Z,13.43
2022-12-06T20:59:29.814Z,7.93
2022-12-06T21:02:16.820Z,7.83
2022-12-06T21:05:03.816Z,9.17
2022-12-06T21:07:50.817Z,8.30
2022-12-06T21:10:53.784Z,8.57
2022-12-06T21:13:45.490Z,9.63
2022-12-06T21:16:34.623Z,6.87
2022-12-06T21:19:21.882Z,6.47
2022-12-06T21:22:08.874Z,8.67
2022-12-06T21:24:56.592Z,8.37
2022-12-06T21:27:43.427Z,8.40
2022-12-06T21:30:31.790Z,9.23
2022-12-06T21:33:18.382Z,8.30
2022-12-06T21:36:08.024Z,10.20
2022-12-06T21:38:55.431Z,9.70
2022-12-06T21:41:42.600Z,9.70
2022-12-06T21:44:29.221Z,7.23
2022-12-06T21:47:16.949Z,9.23
2022-12-06T21:50:03.774Z,11.17
2022-12-06T21:52:50.758Z,9.83
2022-12-06T21:55:39.550Z,9.93
2022-12-06T21:58:27.204Z,9.03
2022-12-06T22:01:18.331Z,9.60
2022-12-06T22:04:06.531Z,8.67
2022-12-06T22:06:53.376Z,9.50
2022-12-06T22:09:40.213Z,9.63
2022-12-06T22:12:27.499Z,9.93
2022-12-06T22:15:13.917Z,8.47
2022-12-06T22:18:00.480Z,8.33
2022-12-06T22:20:58.710Z,9.67
2022-12-06T22:23:46.311Z,8.67
2022-12-06T22:26:33.273Z,10.43
2022-12-06T22:29:20.006Z,7.90
2022-12-06T22:32:07.359Z,11.63
2022-12-06T22:34:54.127Z,8.97
2022-12-06T22:37:42.235Z,9.20
2022-12-06T22:40:28.554Z,8.07
2022-12-06T22:43:15.040Z,9.90
2022-12-06T22:46:06.828Z,9.43
2022-12-06T22:48:54.179Z,8.07
2022-12-06T22:51:40.971Z,10.73
2022-12-06T22:54:29.147Z,11.27
2022-12-06T22:57:15.635Z,10.10
2022-12-06T23:00:02.269Z,8.87
2022-12-06T23:02:49.116Z,8.20
2022-12-06T23:05:38.940Z,11.20
2022-12-06T23:08:25.927Z,10.47
2022-12-06T23:11:16.573Z,7.87
2022-12-06T23:14:04.599Z,7.80
2022-12-06T23:16:51.328Z,9.00
2022-12-06T23:19:37.744Z,6.93
2022-12-06T23:22:24.304Z,6.87
2022-12-06T23:25:11.131Z,8.47
2022-12-06T23:27:59.326Z,8.43
2022-12-06T23:30:46.279Z,10.00
2022-12-06T23:33:33.407Z,8.57
2022-12-06T23:36:23.125Z,8.60
2022-12-06T23:39:10.638Z,6.57
2022-12-06T23:41:57.439Z,6.23
2022-12-06T23:44:45.451Z,7.73
2022-12-06T23:47:32.337Z,6.80
2022-12-06T23:50:18.819Z,9.33
2022-12-06T23:53:05.574Z,8.03
2022-12-06T23:55:52.430Z,8.83
2022-12-06T23:58:39.443Z,8.50
